Time;durP1;ratioP1;P1;durP2;ratioP2;P2;SDS_P1;SDS_P2;PMS_P1;PMS_P2;Temp;Humidity;BMP_temperature;BMP_pressure;BME280_temperature;BME280_humidity;BME280_pressure;Samples;Min_cycle;Max_cycle;Signal;HPM_P1;HPM_P2
2022/05/19 00:01:15;;;;;;;3.03;1.20;;;;;;;15.61;41.37;98642.03;10096081;29;20063;-75
2022/05/19 00:06:35;;;;;;;5.90;1.20;;;;;;;15.54;41.37;98648.59;10094737;29;20053;-75
2022/05/19 00:11:56;;;;;;;3.10;1.02;;;;;;;15.53;41.46;98649.91;10108017;29;20044;-75
2022/05/19 00:17:17;;;;;;;3.65;1.00;;;;;;;15.50;41.00;98639.91;10120996;29;20048;-75
2022/05/19 00:22:38;;;;;;;6.35;1.05;;;;;;;15.45;41.12;98644.53;10120768;29;20057;-75
2022/05/19 00:27:58;;;;;;;2.47;0.77;;;;;;;15.40;41.20;98650.50;10107457;29;20044;-76
2022/05/19 00:33:20;;;;;;;3.78;0.90;;;;;;;15.31;40.96;98646.44;10069496;29;20513;-76
2022/05/19 00:38:43;;;;;;;3.78;0.80;;;;;;;15.25;41.09;98634.84;10092218;29;20782;-76
2022/05/19 00:44:05;;;;;;;5.32;1.00;;;;;;;15.17;40.99;98645.56;10128277;29;20049;-76
2022/05/19 00:49:35;;;;;;;1.65;0.80;;;;;;;15.15;40.98;98639.78;10103190;29;20384;-74
2022/05/19 00:55:26;;;;;;;3.65;1.00;;;;;;;15.05;40.92;98639.88;10114425;29;20487;-76
2022/05/19 01:00:49;;;;;;;1.75;0.55;;;;;;;15.00;40.17;98635.34;10117475;29;20079;-76
2022/05/19 01:06:14;;;;;;;1.13;0.63;;;;;;;14.93;40.07;98646.81;10115090;29;20048;-75
2022/05/19 01:11:41;;;;;;;2.90;0.77;;;;;;;14.85;39.77;98652.63;10101569;29;20435;-75
2022/05/19 01:17:02;;;;;;;2.60;0.80;;;;;;;14.82;39.67;98651.75;10113956;29;20567;-75
2022/05/19 01:22:32;;;;;;;3.90;0.77;;;;;;;14.75;39.32;98646.34;10113415;29;20415;-76
2022/05/19 01:27:53;;;;;;;2.08;0.50;;;;;;;14.72;39.41;98644.75;10126439;29;20072;-75
2022/05/19 01:34:18;;;;;;;4.07;0.93;;;;;;;14.72;38.92;98641.94;10126654;29;20045;-75
2022/05/19 01:40:11;;;;;;;2.72;0.55;;;;;;;14.62;38.41;98644.81;10140033;29;20496;-75
2022/05/19 01:45:32;;;;;;;1.98;0.70;;;;;;;14.57;38.48;98649.44;10125798;29;20044;-75
2022/05/19 01:50:59;;;;;;;2.47;0.60;;;;;;;14.46;38.45;98641.66;10127592;29;20498;-76
2022/05/19 01:57:07;;;;;;;4.72;0.63;;;;;;;14.37;38.23;98633.25;10114284;29;20522;-75
2022/05/19 02:11:26;;;;;;;3.22;0.85;;;;;;;14.18;38.25;98622.88;10025573;29;20425;-75
2022/05/19 02:17:51;;;;;;;2.38;0.95;;;;;;;14.02;38.58;98623.28;10029383;29;20049;-75
2022/05/19 02:24:22;;;;;;;2.95;0.75;;;;;;;13.94;39.10;98625.53;10118290;29;20052;-76
2022/05/19 02:30:51;;;;;;;5.25;0.90;;;;;;;13.96;39.00;98622.84;10134490;29;20052;-75
2022/05/19 02:36:45;;;;;;;4.78;0.60;;;;;;;13.86;39.14;98629.84;10112264;29;20052;-75
2022/05/19 02:50:47;;;;;;;4.78;0.82;;;;;;;13.78;39.52;98632.09;10139454;29;20100;-75
2022/05/19 02:56:41;;;;;;;2.95;0.75;;;;;;;13.78;39.50;98632.81;10112558;29;20104;-76
2022/05/19 03:02:09;;;;;;;3.25;0.82;;;;;;;13.67;39.41;98639.81;10113749;29;20056;-75
2022/05/19 03:07:37;;;;;;;1.80;0.70;;;;;;;13.55;39.68;98638.97;10111361;29;20093;-75
2022/05/19 03:13:22;;;;;;;3.63;0.80;;;;;;;13.54;39.81;98651.53;10103466;29;20040;-75
2022/05/19 03:18:45;;;;;;;1.85;0.88;;;;;;;13.51;39.85;98646.34;10111088;29;20076;-76
2022/05/19 03:24:37;;;;;;;2.05;0.68;;;;;;;13.50;40.49;98644.88;10127179;29;20056;-76
2022/05/19 03:30:28;;;;;;;2.22;0.80;;;;;;;13.44;40.39;98650.81;10126608;29;20060;-75
2022/05/19 03:36:25;;;;;;;2.20;0.95;;;;;;;13.41;40.72;98646.38;10127100;29;20053;-76
2022/05/19 03:41:48;;;;;;;2.60;0.80;;;;;;;13.30;40.75;98647.72;10109314;29;20060;-76
2022/05/19 03:47:45;;;;;;;2.75;0.70;;;;;;;13.33;41.08;98652.16;10127920;29;20057;-75
2022/05/19 03:53:07;;;;;;;2.00;0.70;;;;;;;13.40;40.99;98665.25;10098658;29;20085;-76
2022/05/19 03:58:59;;;;;;;3.10;0.80;;;;;;;13.52;40.91;98656.25;10107596;29;20488;-76
2022/05/19 04:04:27;;;;;;;1.33;0.80;;;;;;;13.64;41.03;98651.50;10097845;29;20055;-75
2022/05/19 04:09:53;;;;;;;1.98;0.90;;;;;;;13.76;41.16;98646.72;10111414;29;20497;-76
2022/05/19 04:15:20;;;;;;;1.85;0.82;;;;;;;13.88;40.97;98658.03;10106880;29;20068;-76
2022/05/19 04:20:47;;;;;;;;;;;;;;;13.96;41.33;98653.72;10132556;29;20124;-78
2022/05/19 04:26:11;;;;;;;3.53;1.13;;;;;;;14.12;40.54;98642.88;10161259;29;19923;-80
2022/05/19 04:44:36;;;;;;;5.90;1.50;;;;;;;14.55;39.57;98654.91;10114539;29;20045;-76
2022/05/19 04:51:32;;;;;;;3.22;1.35;;;;;;;14.96;39.27;98640.72;10084598;29;20501;-76
2022/05/19 04:56:53;;;;;;;4.53;1.42;;;;;;;15.29;38.16;98631.53;10090941;29;20045;-76
2022/05/19 05:02:42;;;;;;;3.88;1.60;;;;;;;15.62;38.89;98634.31;10086068;29;20056;-76
2022/05/19 05:08:31;;;;;;;4.45;1.50;;;;;;;16.00;38.75;98644.38;10085409;29;20057;-76
2022/05/19 05:13:55;;;;;;;;;;;;;;;16.35;38.14;98640.81;10077229;29;20493;-75
2022/05/19 05:19:21;;;;;;;3.58;1.52;;;;;;;16.67;38.03;98637.06;10101732;29;20331;-75
2022/05/19 05:24:41;;;;;;;3.58;1.83;;;;;;;17.01;38.00;98658.09;10088893;29;20499;-76
2022/05/19 05:30:04;;;;;;;3.97;1.58;;;;;;;17.41;36.84;98656.78;10076533;29;20045;-75
2022/05/19 05:35:26;;;;;;;;;;;;;;;17.84;34.33;98658.38;10076881;29;20053;-76
2022/05/19 05:40:49;;;;;;;3.92;1.45;;;;;;;18.69;34.02;98660.00;10089791;29;19931;-77
2022/05/19 05:46:12;;;;;;;4.68;1.30;;;;;;;21.88;30.86;98667.63;10075284;29;20045;-77
2022/05/19 05:51:33;;;;;;;4.43;1.20;;;;;;;31.48;21.41;98675.50;10076566;29;20037;-75
2022/05/19 05:56:56;;;;;;;4.00;0.98;;;;;;;37.24;13.57;98693.63;10075123;29;20132;-77
2022/05/19 06:02:17;;;;;;;3.58;1.20;;;;;;;40.25;13.01;98677.84;10060782;29;20048;-78
2022/05/19 06:07:38;;;;;;;5.07;1.05;;;;;;;42.66;9.12;98675.00;10060453;29;20085;-78
2022/05/19 06:12:59;;;;;;;3.13;1.40;;;;;;;44.79;8.98;98672.00;10047905;29;20048;-79
2022/05/19 06:18:20;;;;;;;4.47;1.10;;;;;;;46.36;7.06;98670.75;10072846;29;20053;-79
2022/05/19 06:23:43;;;;;;;6.15;1.30;;;;;;;47.65;6.32;98678.50;10073050;29;20109;-78
2022/05/19 06:29:06;;;;;;;2.85;0.70;;;;;;;48.53;4.37;98681.88;10044368;29;20164;-78
2022/05/19 06:34:30;;;;;;;4.00;0.52;;;;;;;49.03;4.33;98679.03;10057085;29;20435;-79
2022/05/19 06:39:52;;;;;;;4.28;0.93;;;;;;;50.33;2.99;98680.81;10072897;29;20057;-78
2022/05/19 06:45:24;;;;;;;6.35;1.98;;;;;;;51.02;2.96;98683.38;10062829;29;20494;-78
2022/05/19 06:50:46;;;;;;;6.93;0.70;;;;;;;50.99;2.25;98673.94;10059665;29;20068;-78
2022/05/19 06:56:25;;;;;;;4.97;0.80;;;;;;;51.20;3.01;98670.66;10063221;29;20049;-76
2022/05/19 07:01:49;;;;;;;2.60;0.82;;;;;;;51.59;2.13;98676.28;10058993;29;20049;-75
2022/05/19 07:07:11;;;;;;;2.88;0.70;;;;;;;51.49;1.74;98674.19;10059518;29;20089;-78
2022/05/19 07:12:49;;;;;;;4.38;0.60;;;;;;;51.29;2.04;98669.97;10045995;29;20108;-79
2022/05/19 07:18:17;;;;;;;2.97;0.70;;;;;;;51.75;1.11;98668.25;10059020;29;20488;-80
2022/05/19 07:24:07;;;;;;;5.80;0.90;;;;;;;52.92;1.29;98651.06;10048004;29;20057;-80
2022/05/19 07:30:18;;;;;;;4.28;0.70;;;;;;;52.96;0.90;98649.97;10055406;29;20057;-79
2022/05/19 07:35:40;;;;;;;2.08;0.60;;;;;;;53.32;1.15;98651.16;10057936;29;20049;-79
2022/05/19 07:41:03;;;;;;;4.47;0.68;;;;;;;52.00;0.91;98646.66;10058334;29;20079;-77
2022/05/19 07:47:01;;;;;;;2.83;0.68;;;;;;;51.80;1.07;98642.50;10071831;29;20053;-79
2022/05/19 07:52:44;;;;;;;3.20;0.80;;;;;;;50.55;1.80;98646.34;10068835;29;20071;-79
2022/05/19 07:58:09;;;;;;;6.32;0.70;;;;;;;52.28;1.26;98633.81;10070680;29;20097;-78
2022/05/19 08:03:31;;;;;;;2.20;0.70;;;;;;;53.17;1.36;98643.53;10054624;29;20552;-79
2022/05/19 08:08:58;;;;;;;5.07;0.80;;;;;;;52.83;1.55;98631.84;10060728;29;20045;-79
2022/05/19 08:21:03;;;;;;;3.08;0.77;;;;;;;54.85;0.13;98613.13;10056902;29;20053;-80
2022/05/19 08:26:58;;;;;;;2.27;1.00;;;;;;;54.53;0.39;98605.81;10056087;29;20127;-78
2022/05/19 08:32:24;;;;;;;2.28;1.00;;;;;;;53.49;0.34;98603.31;10082636;29;20041;-82
2022/05/19 08:44:30;;;;;;;4.97;1.42;;;;;;;52.91;0.43;98589.38;10082120;29;20344;-78
2022/05/19 08:50:18;;;;;;;3.80;1.70;;;;;;;53.00;0.58;98592.28;10068980;29;20407;-78
2022/05/19 08:55:42;;;;;;;4.53;1.95;;;;;;;55.03;0.66;98584.38;10081323;29;20400;-78
2022/05/19 09:01:43;;;;;;;4.30;2.40;;;;;;;54.91;0.56;98579.63;10089199;29;20049;-76
2022/05/19 09:13:09;;;;;;;3.65;2.70;;;;;;;54.74;0.37;98564.97;10101001;29;20056;-74
2022/05/19 09:18:36;;;;;;;4.13;3.30;;;;;;;55.06;0.54;98561.63;10100646;29;20053;-76
2022/05/19 09:23:58;;;;;;;3.70;3.20;;;;;;;54.62;0.21;98554.22;10087851;29;20053;-76
2022/05/19 09:29:40;;;;;;;4.15;3.78;;;;;;;53.45;0.49;98556.66;10075154;29;20093;-78
2022/05/19 09:35:08;;;;;;;4.07;3.80;;;;;;;53.15;1.01;98538.69;10100337;29;20041;-81
2022/05/19 09:40:37;;;;;;;5.25;4.70;;;;;;;53.02;0.16;98551.06;10086591;29;20228;-78
2022/05/19 09:46:09;;;;;;;5.50;4.20;;;;;;;52.86;0.34;98532.41;10075637;29;20440;-79
2022/05/19 09:51:44;;;;;;;4.45;4.15;;;;;;;53.59;0.00;98524.06;10086934;29;20037;-79
2022/05/19 09:57:11;;;;;;;5.10;4.60;;;;;;;53.05;0.10;98512.81;10074096;29;20060;-79
2022/05/19 10:02:36;;;;;;;5.60;5.03;;;;;;;53.25;0.46;98510.88;10086270;29;20053;-79
2022/05/19 10:08:18;;;;;;;5.30;5.00;;;;;;;52.64;0.42;98510.66;10088533;29;20404;-79
2022/05/19 10:13:46;;;;;;;6.70;6.20;;;;;;;54.20;0.09;98512.09;10070845;29;20108;-78
2022/05/19 10:19:17;;;;;;;7.25;6.75;;;;;;;52.98;0.30;98509.69;10073243;29;20097;-78
2022/05/19 10:25:08;;;;;;;7.45;6.90;;;;;;;53.19;0.64;98503.22;10085197;29;20060;-78
2022/05/19 10:31:03;;;;;;;;;;;;;;;52.27;0.87;98501.41;10083621;29;20064;-78
2022/05/19 10:36:42;;;;;;;4.90;4.55;;;;;;;51.25;0.74;98504.50;10094487;29;21156;-78
2022/05/19 10:42:29;;;;;;;6.65;3.15;;;;;;;49.88;1.07;98491.50;10078655;29;20425;-79
2022/05/19 10:48:32;;;;;;;3.00;0.93;;;;;;;49.08;1.58;98478.63;10083631;29;20075;-78
2022/05/19 10:54:08;;;;;;;4.90;0.50;;;;;;;47.63;1.96;98459.13;10069814;29;20061;-78
2022/05/19 10:59:47;;;;;;;5.13;0.40;;;;;;;45.20;2.31;98450.94;10081981;29;20048;-76
2022/05/19 11:05:23;;;;;;;4.22;0.50;;;;;;;40.78;4.25;98435.84;10096754;29;20049;-79
2022/05/19 11:11:06;;;;;;;1.48;0.43;;;;;;;37.64;5.68;98432.72;10082716;29;20463;-80
2022/05/19 11:16:34;;;;;;;2.10;0.50;;;;;;;36.27;6.75;98435.69;10081913;29;20071;-81
2022/05/19 11:22:01;;;;;;;1.55;0.47;;;;;;;34.82;7.51;98417.03;10082171;29;20045;-79
2022/05/19 11:27:22;;;;;;;1.60;0.50;;;;;;;33.73;8.55;98414.47;10069467;29;20128;-80
2022/05/19 11:32:44;;;;;;;3.08;0.60;;;;;;;32.97;9.12;98409.63;10068524;29;20492;-79
2022/05/19 11:38:15;;;;;;;3.78;0.52;;;;;;;33.01;9.56;98400.22;10081493;29;20124;-80
2022/05/19 11:43:43;;;;;;;1.63;0.68;;;;;;;32.57;11.01;98389.81;10087368;29;20057;-77
2022/05/19 11:55:22;;;;;;;3.00;0.60;;;;;;;31.22;11.82;98387.88;10085410;29;20088;-77
2022/05/19 12:00:49;;;;;;;3.90;0.50;;;;;;;30.70;12.11;98391.66;10056484;29;20046;-77
2022/05/19 12:06:13;;;;;;;1.52;0.40;;;;;;;30.94;12.31;98380.03;10083468;29;20065;-78
2022/05/19 12:11:46;;;;;;;2.65;0.50;;;;;;;31.13;12.37;98377.81;10094037;29;20049;-75
2022/05/19 12:17:35;;;;;;;4.93;0.45;;;;;;;31.29;11.87;98371.28;10094005;29;20052;-75
2022/05/19 12:36:25;;;;;;;5.57;0.40;;;;;;;30.47;12.74;98345.56;10098670;29;20053;-76
2022/05/19 12:41:50;;;;;;;2.50;0.40;;;;;;;30.69;12.46;98341.22;10086523;29;20058;-76
2022/05/19 12:47:15;;;;;;;4.05;0.60;;;;;;;30.49;12.33;98348.44;10097263;29;20488;-77
2022/05/19 12:52:56;;;;;;;1.25;0.30;;;;;;;30.49;12.13;98333.31;10088046;29;20069;-78
2022/05/19 12:58:37;;;;;;;1.40;0.40;;;;;;;30.63;12.84;98333.31;10089843;29;20041;-75
2022/05/19 13:04:20;;;;;;;2.00;0.50;;;;;;;30.43;12.05;98330.47;10100616;29;20756;-78
2022/05/19 13:09:42;;;;;;;1.75;0.50;;;;;;;30.12;12.54;98309.66;10075658;29;20037;-80
2022/05/19 13:15:03;;;;;;;1.10;0.40;;;;;;;30.32;12.57;98315.38;10089375;29;20063;-76
2022/05/19 13:20:30;;;;;;;2.70;0.30;;;;;;;30.32;12.54;98311.78;10099047;29;20489;-75
2022/05/19 13:26:04;;;;;;;4.70;0.60;;;;;;;30.33;12.53;98311.06;10075387;29;20045;-76
2022/05/19 13:31:27;;;;;;;1.20;0.30;;;;;;;30.33;12.72;98299.53;10060091;29;20049;-75
2022/05/19 13:37:02;;;;;;;1.17;0.40;;;;;;;30.18;12.13;98301.00;10071305;29;20057;-79
2022/05/19 13:42:23;;;;;;;1.42;0.40;;;;;;;30.04;12.04;98292.38;10043349;29;20059;-74
2022/05/19 13:47:48;;;;;;;1.65;0.30;;;;;;;29.87;12.37;98283.03;10048739;29;20101;-77
2022/05/19 13:53:12;;;;;;;1.35;0.20;;;;;;;29.78;12.24;98265.06;10063415;29;20057;-77
2022/05/19 13:58:33;;;;;;;;;;;;;;;30.06;12.20;98269.34;10069653;29;20053;-75
2022/05/19 14:03:59;;;;;;;0.73;0.30;;;;;;;30.03;12.31;98259.28;10072314;29;19972;-75
2022/05/19 14:09:24;;;;;;;2.05;0.30;;;;;;;30.39;11.88;98249.84;10085505;29;20108;-75
2022/05/19 14:14:50;;;;;;;2.72;0.47;;;;;;;30.27;12.19;98239.09;10085923;29;20049;-76
2022/05/19 14:20:22;;;;;;;2.17;0.25;;;;;;;30.42;11.70;98237.59;10073167;29;20056;-75
2022/05/19 14:25:44;;;;;;;0.90;0.30;;;;;;;30.65;11.78;98226.72;10069082;29;20404;-78
2022/05/19 14:31:31;;;;;;;1.15;0.40;;;;;;;30.24;11.11;98220.41;10059579;29;20449;-78
2022/05/19 14:36:55;;;;;;;1.88;0.30;;;;;;;30.05;11.32;98221.88;10075613;29;20543;-80
2022/05/19 14:48:24;;;;;;;1.73;0.30;;;;;;;30.01;10.55;98213.22;10079391;29;20132;-75
2022/05/19 14:53:46;;;;;;;;;;;;;;;29.74;10.44;98195.31;10044501;29;20108;-78
2022/05/19 14:59:17;;;;;;;2.00;0.68;;;;;;;29.46;10.54;98191.00;10082737;29;19924;-76
2022/05/19 15:04:40;;;;;;;2.63;0.35;;;;;;;29.45;10.92;98188.84;10059483;29;20117;-75
2022/05/19 15:10:03;;;;;;;1.35;0.30;;;;;;;29.23;11.21;98190.25;10071676;29;20051;-74
2022/05/19 15:15:25;;;;;;;1.27;0.30;;;;;;;28.90;11.90;98171.56;10084002;29;20052;-75
2022/05/19 15:20:47;;;;;;;1.75;0.30;;;;;;;28.68;11.92;98175.81;10071041;29;20045;-75
2022/05/19 15:26:09;;;;;;;1.43;0.30;;;;;;;28.69;12.17;98167.91;10083771;29;20045;-74
2022/05/19 15:31:31;;;;;;;;;;;;;;;28.71;12.81;98162.19;10071330;29;20072;-79
2022/05/19 15:36:53;;;;;;;1.20;0.25;;;;;;;28.54;13.01;98155.66;10066822;29;19979;-77
2022/05/19 15:42:16;;;;;;;3.88;0.40;;;;;;;28.54;12.96;98152.78;10057846;29;20137;-75
2022/05/19 15:47:42;;;;;;;1.58;0.28;;;;;;;28.71;13.23;98160.03;10071201;29;20041;-77
2022/05/19 15:53:03;;;;;;;0.90;0.30;;;;;;;28.59;13.41;98154.25;10070739;29;20052;-76
2022/05/19 15:58:30;;;;;;;2.85;0.20;;;;;;;28.60;13.47;98147.06;10037210;29;20129;-80
2022/05/19 16:03:52;;;;;;;1.20;0.50;;;;;;;28.66;13.74;98143.47;10032302;29;20050;-79
2022/05/19 16:09:13;;;;;;;0.80;0.30;;;;;;;28.51;13.80;98134.13;10067256;29;20056;-78
2022/05/19 16:14:34;;;;;;;6.03;0.30;;;;;;;28.30;14.18;98126.91;10065496;29;20076;-76
2022/05/19 16:19:55;;;;;;;3.70;0.47;;;;;;;28.26;14.58;98126.84;10064804;29;20518;-76
2022/05/19 16:25:23;;;;;;;3.20;0.50;;;;;;;28.16;14.71;98125.38;10064722;29;20070;-75
2022/05/19 16:30:45;;;;;;;1.55;0.40;;;;;;;28.09;15.01;98123.94;10064237;29;20148;-76
2022/05/19 16:36:06;;;;;;;1.77;0.30;;;;;;;27.99;15.24;98109.56;10058601;29;20050;-77
2022/05/19 16:41:28;;;;;;;4.10;0.47;;;;;;;27.77;15.82;98118.03;10025773;29;20057;-76
2022/05/19 16:46:50;;;;;;;2.73;0.23;;;;;;;27.63;16.10;98112.94;10038334;29;20094;-77
2022/05/19 16:52:12;;;;;;;3.27;0.40;;;;;;;27.55;16.40;98113.59;10037917;29;20101;-77
2022/05/19 16:57:43;;;;;;;1.23;0.40;;;;;;;27.52;16.82;98112.16;10038067;29;20046;-78
2022/05/19 17:03:04;;;;;;;5.75;0.60;;;;;;;27.54;17.19;98122.91;10060415;29;20057;-76
2022/05/19 17:08:29;;;;;;;3.35;0.40;;;;;;;27.55;17.37;98119.31;10071446;29;20056;-76
2022/05/19 17:13:51;;;;;;;2.22;0.40;;;;;;;27.47;17.49;98113.53;10063433;29;20081;-75
2022/05/19 17:19:12;;;;;;;1.70;0.30;;;;;;;27.31;17.59;98119.91;10073054;29;20045;-76
2022/05/19 17:24:34;;;;;;;2.08;0.52;;;;;;;27.20;18.16;98121.22;10074574;29;20049;-76
2022/05/19 17:29:57;;;;;;;1.58;0.40;;;;;;;27.06;18.29;98124.00;10089532;29;20044;-79
2022/05/19 17:35:19;;;;;;;1.92;0.40;;;;;;;26.99;18.61;98120.31;10069992;29;20514;-77
2022/05/19 17:40:40;;;;;;;4.45;0.60;;;;;;;26.89;18.62;98128.09;10072290;29;20112;-80
2022/05/19 17:46:02;;;;;;;1.75;0.60;;;;;;;26.75;19.37;98131.56;10069977;29;20053;-77
2022/05/19 17:51:24;;;;;;;1.25;0.40;;;;;;;26.72;19.52;98141.53;10075220;29;20053;-78
2022/05/19 17:56:46;;;;;;;7.35;0.80;;;;;;;26.69;19.57;98145.81;10072720;29;20041;-78
2022/05/19 18:02:07;;;;;;;2.80;0.70;;;;;;;26.62;19.70;98147.16;10061024;29;20406;-77
2022/05/19 18:07:30;;;;;;;1.55;0.50;;;;;;;26.48;20.23;98145.59;10039861;29;20491;-76
2022/05/19 18:12:53;;;;;;;2.45;0.60;;;;;;;26.35;19.78;98154.75;10069550;29;20143;-80
2022/05/19 18:18:21;;;;;;;4.03;0.57;;;;;;;26.30;20.67;98156.09;10072344;29;20488;-76
2022/05/19 18:23:43;;;;;;;4.10;1.10;;;;;;;26.24;20.46;98148.16;10072716;29;20045;-76
2022/05/19 18:29:06;;;;;;;1.52;0.60;;;;;;;26.17;20.86;98158.81;10086166;29;20053;-81
2022/05/19 18:34:28;;;;;;;2.28;0.80;;;;;;;26.08;20.91;98157.28;10096972;29;20048;-80
2022/05/19 18:39:50;;;;;;;3.63;0.50;;;;;;;25.98;21.35;98156.44;10041722;29;20477;-76
2022/05/19 18:45:11;;;;;;;2.78;0.50;;;;;;;25.89;21.60;98153.47;10088152;29;20053;-80
2022/05/19 18:50:33;;;;;;;5.18;0.85;;;;;;;25.76;21.85;98153.97;10066937;29;20053;-79
2022/05/19 18:55:54;;;;;;;2.50;0.70;;;;;;;25.55;21.95;98156.50;10081669;29;20049;-81
2022/05/19 19:01:16;;;;;;;5.57;0.80;;;;;;;25.47;22.61;98150.66;10058852;29;20076;-77
2022/05/19 19:06:37;;;;;;;4.68;0.98;;;;;;;25.36;22.93;98158.38;10059544;29;20075;-77
2022/05/19 19:11:58;;;;;;;2.60;0.70;;;;;;;25.29;23.07;98156.84;10056257;29;20045;-80
2022/05/19 19:17:19;;;;;;;3.47;0.70;;;;;;;25.24;23.61;98160.31;10050365;29;20073;-79
2022/05/19 19:22:40;;;;;;;3.22;0.60;;;;;;;25.20;23.74;98169.56;10087777;29;20080;-76
2022/05/19 19:28:02;;;;;;;2.80;0.60;;;;;;;25.10;24.05;98178.69;10067611;29;20052;-79
2022/05/19 19:33:22;;;;;;;3.40;1.05;;;;;;;25.02;24.39;98189.25;10054742;29;20437;-78
2022/05/19 19:39:03;;;;;;;8.55;0.80;;;;;;;24.90;24.59;98189.72;10082400;29;20041;-79
2022/05/19 19:44:28;;;;;;;3.85;1.00;;;;;;;24.84;25.03;98181.03;10089380;29;20057;-77
2022/05/19 19:51:53;;;;;;;10.93;1.02;;;;;;;24.80;25.12;98178.84;10086736;29;20092;-77
2022/05/19 19:55:30;;;;;;;4.43;0.90;;;;;;;24.71;25.19;98174.41;10112070;29;20049;-76
2022/05/19 20:00:51;;;;;;;5.80;0.80;;;;;;;24.66;25.86;98170.00;10103185;29;20072;-77
2022/05/19 20:06:12;;;;;;;5.65;1.10;;;;;;;24.55;26.17;98168.38;10059543;29;20070;-77
2022/05/19 20:11:34;;;;;;;5.47;0.80;;;;;;;24.46;26.05;98166.78;10071850;29;20049;-75
2022/05/19 20:16:55;;;;;;;3.10;0.70;;;;;;;24.33;26.63;98150.84;10064712;29;20069;-76
2022/05/19 20:22:18;;;;;;;3.03;0.80;;;;;;;24.21;27.01;98146.28;10076948;29;20046;-75
2022/05/19 20:27:44;;;;;;;1.77;0.57;;;;;;;24.10;27.40;98153.19;10079258;29;20113;-75
2022/05/19 20:33:05;;;;;;;5.95;0.93;;;;;;;24.05;27.82;98150.94;10069116;29;20045;-75
2022/05/19 20:38:25;;;;;;;2.45;0.70;;;;;;;23.96;28.15;98141.50;10069864;29;20056;-76
2022/05/19 20:43:46;;;;;;;2.67;0.77;;;;;;;23.97;28.49;98148.66;10068387;29;20057;-75
2022/05/19 20:49:07;;;;;;;3.63;0.70;;;;;;;23.95;28.62;98154.31;10094793;29;20049;-75
2022/05/19 20:54:29;;;;;;;3.55;1.05;;;;;;;23.88;28.77;98158.44;10085592;29;20045;-75
2022/05/19 20:59:50;;;;;;;1.90;0.63;;;;;;;23.76;28.98;98163.88;10101981;29;20087;-75
2022/05/19 21:05:13;;;;;;;4.75;1.00;;;;;;;23.68;29.44;98167.25;10088635;29;20301;-75
2022/05/19 21:10:33;;;;;;;;;;;;;;;23.61;29.83;98171.38;10089652;29;20052;-76
2022/05/19 21:15:55;;;;;;;3.35;1.05;;;;;;;23.48;30.25;98176.03;10101007;29;19923;-76
2022/05/19 21:21:16;;;;;;;4.32;0.95;;;;;;;23.37;30.50;98186.47;10087888;29;20048;-74
2022/05/19 21:26:37;;;;;;;3.35;0.98;;;;;;;23.24;30.85;98186.84;10100887;29;20408;-74
2022/05/19 21:31:58;;;;;;;4.30;0.90;;;;;;;23.09;30.95;98186.50;10100485;29;20049;-75
2022/05/19 21:37:18;;;;;;;3.28;0.95;;;;;;;23.04;31.61;98184.94;10087593;29;20096;-75
2022/05/19 21:42:39;;;;;;;4.60;0.85;;;;;;;22.91;31.87;98180.34;10086921;29;20105;-75
2022/05/19 21:48:00;;;;;;;5.35;0.98;;;;;;;22.78;31.98;98187.09;10074229;29;20044;-74
2022/05/19 21:59:00;;;;;;;6.30;1.00;;;;;;;22.61;33.00;98200.16;10061502;29;20060;-75
2022/05/19 22:04:21;;;;;;;2.28;0.90;;;;;;;22.70;33.07;98206.78;10086072;29;20052;-75
2022/05/19 22:09:41;;;;;;;4.35;0.80;;;;;;;22.72;33.13;98278.69;10073126;29;20049;-75
2022/05/19 22:15:06;;;;;;;3.05;0.98;;;;;;;22.71;33.41;98291.47;10073441;29;20045;-75
2022/05/19 22:20:27;;;;;;;3.00;0.85;;;;;;;22.74;33.26;98278.75;10072764;29;20060;-75
2022/05/19 22:25:48;;;;;;;2.17;0.90;;;;;;;22.78;33.56;98272.47;10060310;29;20076;-75
2022/05/19 22:31:09;;;;;;;4.72;0.85;;;;;;;22.77;33.69;98268.13;10047701;29;20052;-76
2022/05/19 22:36:30;;;;;;;4.75;1.65;;;;;;;22.77;33.56;98279.53;10056102;29;20048;-75
2022/05/19 22:41:51;;;;;;;2.38;1.02;;;;;;;22.67;34.26;98282.81;10037994;29;20064;-75
2022/05/19 22:52:53;;;;;;;3.55;0.88;;;;;;;22.64;34.16;98267.09;10073879;29;20081;-75
2022/05/19 22:58:14;;;;;;;5.13;1.00;;;;;;;22.65;34.09;98257.16;10071548;29;20396;-75
2022/05/19 23:03:34;;;;;;;5.82;0.90;;;;;;;22.62;34.48;98257.78;10046470;29;20393;-75
2022/05/19 23:08:55;;;;;;;4.55;1.00;;;;;;;22.64;34.46;98261.38;10064105;29;20081;-75
2022/05/19 23:14:15;;;;;;;4.70;1.40;;;;;;;22.60;34.25;98260.56;10071357;29;20392;-75
2022/05/19 23:19:36;;;;;;;7.65;0.80;;;;;;;22.51;34.67;98257.47;10083546;29;20052;-75
2022/05/19 23:24:57;;;;;;;4.28;0.95;;;;;;;22.43;34.70;98271.47;10083679;29;20476;-75
2022/05/19 23:30:18;;;;;;;4.18;0.82;;;;;;;22.37;35.03;98285.50;10083779;29;20080;-75
2022/05/19 23:35:39;;;;;;;3.38;1.13;;;;;;;22.31;36.04;98304.53;10083420;29;20048;-75
2022/05/19 23:41:00;;;;;;;5.70;0.80;;;;;;;22.27;36.16;98290.88;10070137;29;20109;-75
2022/05/19 23:46:20;;;;;;;3.25;0.73;;;;;;;22.26;36.68;98269.53;10070107;29;20041;-76
2022/05/19 23:51:41;;;;;;;7.85;1.10;;;;;;;22.13;38.33;98267.72;10069496;29;20049;-75
2022/05/19 23:57:02;;;;;;;6.18;0.90;;;;;;;22.02;39.28;98263.81;10069785;29;20085;-75
